Time;durP1;ratioP1;P1;durP2;ratioP2;P2;SDS_P1;SDS_P2;PMS_P1;PMS_P2;Temp;Humidity;BMP_temperature;BMP_pressure;BME280_temperature;BME280_humidity;BME280_pressure;Samples;Min_cycle;Max_cycle;Signal;HPM_P1;HPM_P2
2023/08/28 00:01:57;;;;;;;;;3.75;2.00;;;;;;;;5073894;27;45733;-66
2023/08/28 00:04:23;;;;;;;;;3.25;1.00;;;;;;;;5055803;28;48006;-66
2023/08/28 00:06:48;;;;;;;;;4.50;2.25;;;;;;;;5044864;28;45344;-66
2023/08/28 00:09:13;;;;;;;;;4.00;4.00;;;;;;;;5071539;27;45398;-66
2023/08/28 00:11:39;;;;;;;;;1.00;1.00;;;;;;;;5085208;27;45417;-66
2023/08/28 00:14:04;;;;;;;;;3.50;1.75;;;;;;;;5076660;27;45525;-66
2023/08/28 00:16:29;;;;;;;;;2.00;2.00;;;;;;;;5074589;27;45512;-67
2023/08/28 00:18:55;;;;;;;;;2.67;2.67;;;;;;;;5064488;27;45333;-68
2023/08/28 00:21:20;;;;;;;;;2.00;2.00;;;;;;;;5056345;28;47244;-67
2023/08/28 00:23:45;;;;;;;;;6.00;3.00;;;;;;;;5073012;27;45436;-67
2023/08/28 00:26:11;;;;;;;;;2.00;2.00;;;;;;;;5074292;27;45402;-67
2023/08/28 00:28:36;;;;;;;;;2.00;2.00;;;;;;;;5067162;27;45631;-67
2023/08/28 00:31:02;;;;;;;;;3.00;2.33;;;;;;;;5073983;27;45348;-66
2023/08/28 00:33:27;;;;;;;;;1.67;1.67;;;;;;;;5074094;27;46488;-67
2023/08/28 00:35:53;;;;;;;;;4.00;4.00;;;;;;;;5073338;27;45687;-66
2023/08/28 00:38:18;;;;;;;;;5.00;3.67;;;;;;;;5076989;27;45560;-67
2023/08/28 00:40:43;;;;;;;;;2.67;2.67;;;;;;;;5073646;27;45473;-67
2023/08/28 00:43:08;;;;;;;;;3.67;2.00;;;;;;;;5054666;27;46319;-67
2023/08/28 00:45:35;;;;;;;;;5.00;3.00;;;;;;;;5072352;27;45261;-67
2023/08/28 00:48:01;;;;;;;;;3.33;1.67;;;;;;;;5071869;27;45466;-67
2023/08/28 00:50:26;;;;;;;;;2.33;2.33;;;;;;;;5073240;27;45889;-66
2023/08/28 00:52:51;;;;;;;;;1.00;1.00;;;;;;;;5068235;27;45524;-67
2023/08/28 00:55:17;;;;;;;;;1.67;1.67;;;;;;;;5073186;27;45769;-66
2023/08/28 00:57:42;;;;;;;;;3.67;2.00;;;;;;;;5073460;27;45663;-66
2023/08/28 01:00:10;;;;;;;;;4.00;3.00;;;;;;;;5062772;27;45748;-66
2023/08/28 01:02:36;;;;;;;;;3.67;2.00;;;;;;;;5065067;27;45491;-67
2023/08/28 01:05:01;;;;;;;;;2.00;2.00;;;;;;;;5074222;27;45535;-67
2023/08/28 01:07:33;;;;;;;;;1.00;1.00;;;;;;;;5048524;28;45389;-66
2023/08/28 01:10:04;;;;;;;;;2.00;2.00;;;;;;;;5059792;27;45404;-66
2023/08/28 01:12:48;;;;;;;;;2.00;2.00;;;;;;;;5083387;27;46508;-65
2023/08/28 01:15:18;;;;;;;;;1.00;1.00;;;;;;;;5064751;27;45362;-66
2023/08/28 01:17:44;;;;;;;;;2.00;2.00;;;;;;;;5068206;28;45463;-65
2023/08/28 01:20:13;;;;;;;;;2.00;2.00;;;;;;;;5071385;27;45753;-66
2023/08/28 01:22:42;;;;;;;;;2.00;1.00;;;;;;;;5071532;27;45639;-66
2023/08/28 01:25:12;;;;;;;;;3.67;1.00;;;;;;;;5079912;27;45741;-66
2023/08/28 01:27:40;;;;;;;;;1.00;1.00;;;;;;;;5072812;27;45653;-65
2023/08/28 01:30:05;;;;;;;;;1.67;1.67;;;;;;;;5053574;28;46633;-66
2023/08/28 01:32:31;;;;;;;;;1.00;1.00;;;;;;;;5071500;27;45620;-65
2023/08/28 01:34:56;;;;;;;;;0.00;0.00;;;;;;;;5071628;27;45682;-67
2023/08/28 01:37:22;;;;;;;;;2.00;2.00;;;;;;;;5071846;27;45447;-65
2023/08/28 01:39:50;;;;;;;;;0.25;0.25;;;;;;;;5071454;27;45476;-66
2023/08/28 01:42:18;;;;;;;;;3.00;3.00;;;;;;;;5072491;27;46102;-66
2023/08/28 01:44:43;;;;;;;;;1.00;1.00;;;;;;;;5070768;27;45776;-66
2023/08/28 01:47:09;;;;;;;;;1.00;1.00;;;;;;;;5064303;27;45689;-66
2023/08/28 01:49:34;;;;;;;;;1.67;1.00;;;;;;;;5049346;27;46203;-67
2023/08/28 01:51:59;;;;;;;;;1.00;1.00;;;;;;;;5072901;27;46203;-66
2023/08/28 01:54:25;;;;;;;;;2.33;0.33;;;;;;;;5067934;27;45506;-66
2023/08/28 01:56:50;;;;;;;;;1.00;1.00;;;;;;;;5074686;27;45369;-65
2023/08/28 01:59:16;;;;;;;;;2.00;1.00;;;;;;;;5067072;27;45408;-66
2023/08/28 02:01:41;;;;;;;;;2.50;1.00;;;;;;;;5057823;28;46284;-64
2023/08/28 02:04:06;;;;;;;;;2.00;1.67;;;;;;;;5056807;27;45605;-66
2023/08/28 02:06:32;;;;;;;;;1.25;1.25;;;;;;;;5086723;27;45927;-66
2023/08/28 02:08:57;;;;;;;;;3.00;1.67;;;;;;;;5075905;27;45745;-65
2023/08/28 02:11:22;;;;;;;;;2.33;1.00;;;;;;;;5081451;27;45737;-65
2023/08/28 02:13:47;;;;;;;;;2.00;2.00;;;;;;;;5075885;27;45462;-65
2023/08/28 02:16:12;;;;;;;;;1.00;1.00;;;;;;;;5075968;27;45472;-66
2023/08/28 02:18:39;;;;;;;;;2.67;1.00;;;;;;;;5076201;27;45499;-66
2023/08/28 02:21:04;;;;;;;;;1.67;1.00;;;;;;;;5076336;27;45547;-65
2023/08/28 02:23:29;;;;;;;;;1.00;1.00;;;;;;;;5075766;27;45463;-66
2023/08/28 02:25:55;;;;;;;;;0.67;0.67;;;;;;;;5076136;27;45307;-67
2023/08/28 02:28:20;;;;;;;;;2.50;1.75;;;;;;;;5076787;27;45665;-67
2023/08/28 02:30:46;;;;;;;;;2.00;2.00;;;;;;;;5057801;28;48143;-67
2023/08/28 02:33:11;;;;;;;;;2.00;2.00;;;;;;;;5075406;27;45441;-66
2023/08/28 02:35:36;;;;;;;;;2.00;2.00;;;;;;;;5075308;27;45396;-66
2023/08/28 02:38:01;;;;;;;;;1.00;1.00;;;;;;;;5074885;27;45309;-65
2023/08/28 02:40:27;;;;;;;;;1.00;1.00;;;;;;;;5075199;27;46259;-66
2023/08/28 02:42:53;;;;;;;;;2.00;1.33;;;;;;;;5075417;27;45333;-66
2023/08/28 02:45:18;;;;;;;;;2.00;2.00;;;;;;;;5076074;27;45407;-66
2023/08/28 02:47:43;;;;;;;;;3.00;1.00;;;;;;;;5076250;27;45642;-67
2023/08/28 02:50:09;;;;;;;;;0.00;0.00;;;;;;;;5055866;28;48102;-65
2023/08/28 02:52:34;;;;;;;;;3.00;0.00;;;;;;;;5063166;27;45722;-66
2023/08/28 02:54:59;;;;;;;;;2.00;2.00;;;;;;;;5072690;27;45363;-68
2023/08/28 02:57:24;;;;;;;;;2.00;2.00;;;;;;;;5065903;27;45423;-66
2023/08/28 02:59:50;;;;;;;;;2.00;1.00;;;;;;;;5072527;27;46186;-66
2023/08/28 03:02:15;;;;;;;;;2.00;2.00;;;;;;;;5074857;27;45394;-68
2023/08/28 03:04:43;;;;;;;;;0.75;0.00;;;;;;;;5075120;27;45666;-65
2023/08/28 03:07:09;;;;;;;;;2.00;1.00;;;;;;;;5056151;28;45350;-66
2023/08/28 03:09:34;;;;;;;;;1.00;1.00;;;;;;;;5063047;27;45748;-65
2023/08/28 03:12:00;;;;;;;;;2.25;2.00;;;;;;;;5074262;27;45836;-66
2023/08/28 03:14:25;;;;;;;;;1.25;1.00;;;;;;;;5068285;27;45611;-66
2023/08/28 03:16:50;;;;;;;;;2.33;2.33;;;;;;;;5074076;27;45883;-66
2023/08/28 03:19:16;;;;;;;;;2.67;1.33;;;;;;;;5073426;27;45329;-66
2023/08/28 03:21:41;;;;;;;;;0.00;0.00;;;;;;;;5075012;27;45561;-68
2023/08/28 03:24:06;;;;;;;;;2.50;1.50;;;;;;;;5075047;27;45436;-67
2023/08/28 03:26:32;;;;;;;;;3.00;2.00;;;;;;;;5056773;28;45314;-65
2023/08/28 03:28:57;;;;;;;;;2.33;2.00;;;;;;;;5069659;27;45633;-66
2023/08/28 03:31:23;;;;;;;;;1.00;1.00;;;;;;;;5069633;27;45568;-67
2023/08/28 03:33:48;;;;;;;;;1.00;1.00;;;;;;;;5068493;27;45521;-65
2023/08/28 03:36:13;;;;;;;;;0.50;0.50;;;;;;;;5056050;27;46239;-67
2023/08/28 03:38:38;;;;;;;;;1.33;1.33;;;;;;;;5074584;27;46180;-66
2023/08/28 03:41:04;;;;;;;;;1.75;1.00;;;;;;;;5069656;27;45724;-65
2023/08/28 03:43:29;;;;;;;;;1.00;1.00;;;;;;;;5073524;27;45634;-66
2023/08/28 03:45:54;;;;;;;;;3.33;2.33;;;;;;;;5074438;27;46053;-65
2023/08/28 03:48:19;;;;;;;;;0.33;0.33;;;;;;;;5071378;27;46080;-66
2023/08/28 03:50:45;;;;;;;;;4.00;2.00;;;;;;;;5055508;28;46152;-67
2023/08/28 03:53:10;;;;;;;;;1.25;1.25;;;;;;;;5073873;27;45516;-66
2023/08/28 03:55:37;;;;;;;;;3.00;2.00;;;;;;;;5073993;27;45466;-65
2023/08/28 03:58:03;;;;;;;;;1.67;0.33;;;;;;;;5050913;28;45914;-66
2023/08/28 04:00:29;;;;;;;;;1.33;1.33;;;;;;;;5074380;27;45644;-66
2023/08/28 04:02:54;;;;;;;;;1.00;1.00;;;;;;;;5055824;27;45941;-66
2023/08/28 04:05:21;;;;;;;;;3.00;2.00;;;;;;;;5056054;28;45642;-66
2023/08/28 04:07:46;;;;;;;;;2.33;1.00;;;;;;;;5053649;28;47008;-67
2023/08/28 04:10:12;;;;;;;;;1.33;1.00;;;;;;;;5069253;27;45361;-66
2023/08/28 04:12:37;;;;;;;;;2.67;1.33;;;;;;;;5066532;28;45259;-65
2023/08/28 04:15:03;;;;;;;;;2.00;2.00;;;;;;;;5066156;27;45734;-66
2023/08/28 04:17:29;;;;;;;;;5.33;5.00;;;;;;;;5068322;27;46645;-65
2023/08/28 04:19:54;;;;;;;;;3.67;2.33;;;;;;;;5058476;27;45351;-65
2023/08/28 04:22:20;;;;;;;;;3.00;3.00;;;;;;;;5070955;27;45664;-66
2023/08/28 04:24:46;;;;;;;;;2.00;1.00;;;;;;;;5071934;27;45911;-65
2023/08/28 04:27:12;;;;;;;;;2.25;1.00;;;;;;;;5072137;27;46042;-66
2023/08/28 04:29:37;;;;;;;;;1.00;1.00;;;;;;;;5072525;27;45780;-65
2023/08/28 04:32:03;;;;;;;;;1.00;1.00;;;;;;;;5071657;27;45769;-66
2023/08/28 04:34:28;;;;;;;;;1.00;1.00;;;;;;;;5072381;27;45374;-65
2023/08/28 04:36:54;;;;;;;;;2.00;2.00;;;;;;;;5053952;27;47211;-65
2023/08/28 04:39:20;;;;;;;;;2.00;2.00;;;;;;;;5070466;27;45490;-67
2023/08/28 04:41:45;;;;;;;;;5.33;3.00;;;;;;;;5065980;27;45428;-66
2023/08/28 04:44:10;;;;;;;;;3.67;2.33;;;;;;;;5073198;27;45417;-67
2023/08/28 04:46:35;;;;;;;;;1.50;1.50;;;;;;;;5066463;27;46240;-66
2023/08/28 04:49:01;;;;;;;;;3.33;1.00;;;;;;;;5070202;27;45377;-67
2023/08/28 04:51:26;;;;;;;;;2.00;2.00;;;;;;;;5077548;27;45939;-66
2023/08/28 04:53:51;;;;;;;;;2.33;2.33;;;;;;;;5070945;27;45760;-68
2023/08/28 04:56:16;;;;;;;;;2.00;1.33;;;;;;;;5071785;27;45526;-69
2023/08/28 04:58:42;;;;;;;;;1.00;1.00;;;;;;;;5073643;27;45330;-68
2023/08/28 05:01:07;;;;;;;;;2.25;2.25;;;;;;;;5069386;27;45358;-69
2023/08/28 05:03:32;;;;;;;;;2.00;2.00;;;;;;;;5072265;27;45618;-66
2023/08/28 05:05:57;;;;;;;;;2.00;1.33;;;;;;;;5069253;28;45650;-67
2023/08/28 05:08:23;;;;;;;;;1.00;1.00;;;;;;;;5071624;27;45790;-67
2023/08/28 05:10:48;;;;;;;;;1.00;1.00;;;;;;;;5072854;27;45366;-64
2023/08/28 05:13:13;;;;;;;;;3.00;2.00;;;;;;;;5056677;27;46571;-63
2023/08/28 05:15:38;;;;;;;;;2.00;2.00;;;;;;;;5073429;27;46152;-64
2023/08/28 05:18:04;;;;;;;;;1.00;1.00;;;;;;;;5067761;28;45652;-64
2023/08/28 05:20:29;;;;;;;;;2.00;0.00;;;;;;;;5046916;27;45477;-64
2023/08/28 05:22:54;;;;;;;;;2.67;1.33;;;;;;;;5053323;28;45440;-64
2023/08/28 05:25:20;;;;;;;;;1.00;1.00;;;;;;;;5061195;27;45568;-65
2023/08/28 05:27:45;;;;;;;;;2.00;1.00;;;;;;;;5072085;27;45646;-63
2023/08/28 05:30:11;;;;;;;;;2.00;1.00;;;;;;;;5061020;27;45623;-63
2023/08/28 05:32:36;;;;;;;;;4.75;1.75;;;;;;;;5061573;27;45518;-65
2023/08/28 05:35:04;;;;;;;;;3.75;2.00;;;;;;;;5064308;27;45497;-63
2023/08/28 05:37:29;;;;;;;;;1.25;1.25;;;;;;;;5067638;27;45560;-65
2023/08/28 05:39:54;;;;;;;;;1.00;1.00;;;;;;;;5070847;27;45693;-65
2023/08/28 05:42:20;;;;;;;;;1.33;1.33;;;;;;;;5040471;28;46934;-64
2023/08/28 05:44:45;;;;;;;;;1.00;1.00;;;;;;;;5071206;27;45499;-67
2023/08/28 05:47:10;;;;;;;;;2.00;0.25;;;;;;;;5067367;28;45420;-64
2023/08/28 05:49:36;;;;;;;;;1.25;1.25;;;;;;;;5053244;27;45377;-65
2023/08/28 05:52:01;;;;;;;;;2.00;2.00;;;;;;;;5063566;27;45711;-63
2023/08/28 05:54:26;;;;;;;;;3.25;1.50;;;;;;;;5070556;27;46151;-65
2023/08/28 05:56:51;;;;;;;;;2.50;1.75;;;;;;;;5071740;27;45393;-64
2023/08/28 05:59:16;;;;;;;;;2.00;2.00;;;;;;;;5067375;27;45274;-64
2023/08/28 06:01:42;;;;;;;;;4.50;2.75;;;;;;;;5068063;27;45791;-65
2023/08/28 06:04:07;;;;;;;;;2.75;2.75;;;;;;;;5071200;27;45321;-62
2023/08/28 06:06:32;;;;;;;;;3.25;1.75;;;;;;;;5070845;27;45805;-64
2023/08/28 06:08:57;;;;;;;;;4.50;3.25;;;;;;;;5073597;27;45439;-65
2023/08/28 06:11:23;;;;;;;;;3.00;3.00;;;;;;;;5049802;28;46113;-64
2023/08/28 06:13:48;;;;;;;;;1.25;1.25;;;;;;;;5169701;22;46377;-65
2023/08/28 06:16:13;;;;;;;;;3.00;2.00;;;;;;;;5055015;27;45765;-65
2023/08/28 06:18:39;;;;;;;;;3.00;3.00;;;;;;;;5076105;27;45617;-64
2023/08/28 06:21:04;;;;;;;;;2.00;2.00;;;;;;;;5065142;27;45823;-65
2023/08/28 06:23:29;;;;;;;;;3.75;2.00;;;;;;;;5072323;27;45800;-66
2023/08/28 06:25:55;;;;;;;;;4.00;1.00;;;;;;;;5049350;28;45807;-66
2023/08/28 06:28:20;;;;;;;;;2.75;1.00;;;;;;;;5072305;27;45758;-64
2023/08/28 06:30:45;;;;;;;;;3.00;1.25;;;;;;;;5050669;28;45236;-65
2023/08/28 06:33:10;;;;;;;;;1.00;1.00;;;;;;;;5062542;28;46090;-63
2023/08/28 06:35:36;;;;;;;;;2.00;2.00;;;;;;;;5055948;27;45659;-64
2023/08/28 06:38:01;;;;;;;;;3.00;2.00;;;;;;;;5055220;27;45842;-65
2023/08/28 06:40:26;;;;;;;;;4.75;3.50;;;;;;;;5058887;27;46695;-65
2023/08/28 06:42:51;;;;;;;;;2.00;2.00;;;;;;;;5049023;27;45385;-65
2023/08/28 06:45:17;;;;;;;;;1.25;1.25;;;;;;;;5079909;27;45688;-64
2023/08/28 06:47:42;;;;;;;;;2.00;1.00;;;;;;;;5079190;27;45682;-64
2023/08/28 06:50:08;;;;;;;;;3.50;2.00;;;;;;;;5068827;27;45805;-64
2023/08/28 06:52:34;;;;;;;;;3.25;2.00;;;;;;;;5076575;27;47311;-64
2023/08/28 06:55:00;;;;;;;;;7.50;3.00;;;;;;;;5064310;27;47101;-64
2023/08/28 06:57:25;;;;;;;;;1.00;1.00;;;;;;;;5068430;27;45915;-64
2023/08/28 06:59:51;;;;;;;;;2.00;2.00;;;;;;;;5050085;28;46152;-64
2023/08/28 07:02:16;;;;;;;;;1.00;1.00;;;;;;;;5066164;27;45611;-64
2023/08/28 07:04:41;;;;;;;;;3.00;2.00;;;;;;;;5063805;27;45666;-63
2023/08/28 07:07:06;;;;;;;;;3.25;2.00;;;;;;;;5055117;27;45962;-64
2023/08/28 07:09:32;;;;;;;;;1.25;1.25;;;;;;;;5065918;27;45445;-64
2023/08/28 07:11:58;;;;;;;;;2.25;1.25;;;;;;;;5067875;27;45861;-64
2023/08/28 07:14:23;;;;;;;;;0.50;0.50;;;;;;;;5070669;27;45470;-64
2023/08/28 07:16:48;;;;;;;;;1.75;1.75;;;;;;;;5060795;27;45325;-64
2023/08/28 07:19:13;;;;;;;;;3.50;2.00;;;;;;;;5047361;28;45956;-64
2023/08/28 07:21:39;;;;;;;;;1.75;1.75;;;;;;;;5070564;27;45342;-63
2023/08/28 07:24:04;;;;;;;;;2.75;2.50;;;;;;;;5047932;27;45479;-64
2023/08/28 07:26:29;;;;;;;;;4.00;3.00;;;;;;;;5060741;27;45564;-64
2023/08/28 07:28:55;;;;;;;;;2.00;1.50;;;;;;;;5063289;27;46160;-63
2023/08/28 07:31:20;;;;;;;;;4.00;3.00;;;;;;;;5064000;27;46291;-65
2023/08/28 07:33:45;;;;;;;;;2.50;2.00;;;;;;;;5069402;27;45700;-64
2023/08/28 07:36:10;;;;;;;;;2.50;2.50;;;;;;;;5074099;27;45440;-63
2023/08/28 07:38:36;;;;;;;;;2.75;2.75;;;;;;;;5089898;27;45364;-67
2023/08/28 07:41:01;;;;;;;;;7.00;4.00;;;;;;;;5079623;27;45311;-64
2023/08/28 07:43:26;;;;;;;;;1.75;1.00;;;;;;;;5073823;27;45894;-64
2023/08/28 07:45:52;;;;;;;;;3.00;3.00;;;;;;;;5065779;28;45437;-64
2023/08/28 07:48:17;;;;;;;;;2.75;2.00;;;;;;;;5075195;27;45571;-64
2023/08/28 07:50:45;;;;;;;;;6.75;5.00;;;;;;;;5078384;27;45435;-63
2023/08/28 07:53:10;;;;;;;;;2.00;2.00;;;;;;;;5077027;27;45515;-63
2023/08/28 07:55:37;;;;;;;;;2.25;2.25;;;;;;;;5077954;27;45462;-63
2023/08/28 07:58:03;;;;;;;;;2.00;2.00;;;;;;;;5074142;27;45297;-64
2023/08/28 08:00:29;;;;;;;;;2.75;1.75;;;;;;;;5073385;27;47032;-63
2023/08/28 08:02:55;;;;;;;;;3.75;2.75;;;;;;;;5065769;27;45780;-64
2023/08/28 08:05:20;;;;;;;;;2.00;2.00;;;;;;;;5049822;27;45523;-64
2023/08/28 08:07:45;;;;;;;;;1.25;1.25;;;;;;;;5065746;27;45695;-64
2023/08/28 08:10:12;;;;;;;;;2.50;1.00;;;;;;;;5069108;27;46641;-64
2023/08/28 08:12:38;;;;;;;;;1.50;1.50;;;;;;;;5047349;27;45427;-64
2023/08/28 08:15:04;;;;;;;;;2.25;2.00;;;;;;;;5078848;27;45491;-67
2023/08/28 08:17:30;;;;;;;;;1.25;1.25;;;;;;;;5072370;27;46021;-66
2023/08/28 08:19:55;;;;;;;;;1.00;1.00;;;;;;;;5074499;27;46108;-66
2023/08/28 08:22:31;;;;;;;;;2.50;1.25;;;;;;;;5078718;27;45646;-67
2023/08/28 08:24:56;;;;;;;;;1.00;1.00;;;;;;;;5051478;27;45264;-67
2023/08/28 08:27:21;;;;;;;;;3.00;1.50;;;;;;;;5074385;27;45682;-66
2023/08/28 08:29:48;;;;;;;;;1.50;1.00;;;;;;;;5072681;27;45396;-67
2023/08/28 08:32:14;;;;;;;;;2.75;1.50;;;;;;;;5074699;27;45484;-67
2023/08/28 08:34:39;;;;;;;;;2.00;2.00;;;;;;;;5064919;27;45423;-68
2023/08/28 08:37:04;;;;;;;;;1.50;1.50;;;;;;;;5084734;27;45350;-67
2023/08/28 08:39:30;;;;;;;;;7.50;3.00;;;;;;;;5072246;27;45352;-66
2023/08/28 08:41:55;;;;;;;;;2.50;2.00;;;;;;;;5064904;27;45972;-67
2023/08/28 08:44:21;;;;;;;;;1.75;1.00;;;;;;;;5051982;28;46133;-66
2023/08/28 08:46:48;;;;;;;;;1.50;1.50;;;;;;;;5058227;27;45354;-68
2023/08/28 08:49:17;;;;;;;;;1.00;1.00;;;;;;;;5067594;27;46707;-67
2023/08/28 08:51:43;;;;;;;;;3.25;3.25;;;;;;;;5068862;27;45734;-68
2023/08/28 08:54:18;;;;;;;;;2.00;1.00;;;;;;;;5064923;27;45417;-67
2023/08/28 08:56:46;;;;;;;;;3.00;3.00;;;;;;;;5060754;27;45661;-68
2023/08/28 08:59:11;;;;;;;;;1.25;1.25;;;;;;;;5046223;27;46959;-66
2023/08/28 09:01:37;;;;;;;;;2.50;2.50;;;;;;;;5050395;28;46650;-68
2023/08/28 09:04:03;;;;;;;;;3.25;1.25;;;;;;;;5072795;27;45770;-68
2023/08/28 09:06:29;;;;;;;;;2.50;2.50;;;;;;;;5058892;27;45815;-68
2023/08/28 09:08:55;;;;;;;;;3.50;3.00;;;;;;;;5063858;27;46179;-67
2023/08/28 09:11:20;;;;;;;;;2.75;2.25;;;;;;;;5048205;28;45912;-67
2023/08/28 09:13:45;;;;;;;;;2.00;1.00;;;;;;;;5070871;28;45738;-65
2023/08/28 09:16:11;;;;;;;;;2.00;2.00;;;;;;;;5067329;27;45662;-66
2023/08/28 09:18:37;;;;;;;;;3.00;1.75;;;;;;;;5067522;28;45348;-66
2023/08/28 09:21:09;;;;;;;;;2.00;2.00;;;;;;;;5068519;27;45738;-67
2023/08/28 09:23:40;;;;;;;;;3.00;1.25;;;;;;;;5062426;27;45704;-68
2023/08/28 09:26:06;;;;;;;;;4.00;2.75;;;;;;;;5065666;27;45735;-67
2023/08/28 09:28:31;;;;;;;;;2.00;2.00;;;;;;;;5061970;27;46124;-68
2023/08/28 09:30:56;;;;;;;;;3.00;3.00;;;;;;;;5074850;27;45374;-67
2023/08/28 09:33:22;;;;;;;;;3.00;3.00;;;;;;;;5069882;27;46603;-68
2023/08/28 09:35:47;;;;;;;;;3.00;3.00;;;;;;;;5081130;27;45897;-65
2023/08/28 09:38:12;;;;;;;;;4.50;2.50;;;;;;;;5058954;28;45606;-67
2023/08/28 09:40:41;;;;;;;;;44.00;32.67;;;;;;;;5067766;27;45806;-67
2023/08/28 09:43:13;;;;;;;;;40.67;28.67;;;;;;;;5069529;27;45444;-68
2023/08/28 09:45:38;;;;;;;;;38.00;30.00;;;;;;;;5060213;27;45600;-66
2023/08/28 09:48:04;;;;;;;;;30.00;24.00;;;;;;;;5056074;27;45466;-67
2023/08/28 09:50:31;;;;;;;;;14.00;7.75;;;;;;;;5057663;28;45858;-66
2023/08/28 09:53:12;;;;;;;;;31.33;24.67;;;;;;;;5067912;27;45865;-66
2023/08/28 09:55:38;;;;;;;;;10.50;8.00;;;;;;;;5074313;27;45534;-66
2023/08/28 09:58:10;;;;;;;;;18.00;11.67;;;;;;;;5060355;27;45855;-66
2023/08/28 10:00:37;;;;;;;;;10.75;6.50;;;;;;;;5045606;27;46632;-67
2023/08/28 10:03:04;;;;;;;;;5.75;3.00;;;;;;;;5074701;27;45416;-67
2023/08/28 10:05:30;;;;;;;;;12.00;11.25;;;;;;;;5051171;27;45545;-65
2023/08/28 10:08:01;;;;;;;;;9.50;7.25;;;;;;;;5055249;28;45423;-66
2023/08/28 10:10:27;;;;;;;;;16.67;14.00;;;;;;;;5063384;27;46163;-68
2023/08/28 10:12:53;;;;;;;;;5.50;4.25;;;;;;;;5059174;27;46652;-68
2023/08/28 10:15:18;;;;;;;;;9.75;7.75;;;;;;;;5054319;27;45797;-66
2023/08/28 10:17:50;;;;;;;;;5.25;5.00;;;;;;;;5054779;27;45853;-67
2023/08/28 10:20:18;;;;;;;;;6.00;4.50;;;;;;;;5041872;27;45517;-67
2023/08/28 10:22:44;;;;;;;;;4.00;4.00;;;;;;;;5081190;27;45448;-67
2023/08/28 10:25:12;;;;;;;;;7.50;4.00;;;;;;;;5067817;28;46695;-68
2023/08/28 10:27:37;;;;;;;;;6.50;5.00;;;;;;;;5061229;27;46560;-67
2023/08/28 10:30:03;;;;;;;;;4.00;3.25;;;;;;;;5068987;27;45689;-68
2023/08/28 10:32:30;;;;;;;;;3.25;2.00;;;;;;;;5063563;27;45506;-68
2023/08/28 10:34:56;;;;;;;;;4.75;4.25;;;;;;;;5065973;27;45986;-68
2023/08/28 10:37:21;;;;;;;;;5.00;5.00;;;;;;;;5065983;28;47155;-70
2023/08/28 10:39:47;;;;;;;;;2.25;2.00;;;;;;;;5077772;27;45575;-69
2023/08/28 10:42:17;;;;;;;;;2.00;2.00;;;;;;;;5065153;27;45815;-70
2023/08/28 10:44:43;;;;;;;;;3.50;3.25;;;;;;;;5069543;27;45727;-69
2023/08/28 10:47:08;;;;;;;;;2.00;2.00;;;;;;;;5073099;27;45718;-69
2023/08/28 10:49:34;;;;;;;;;4.00;4.00;;;;;;;;5063630;27;46014;-71
2023/08/28 10:52:01;;;;;;;;;1.75;1.75;;;;;;;;5067329;27;45724;-69
2023/08/28 10:54:35;;;;;;;;;3.25;3.25;;;;;;;;5066341;27;45695;-68
2023/08/28 10:57:04;;;;;;;;;2.50;2.00;;;;;;;;5064939;27;45558;-69
2023/08/28 10:59:30;;;;;;;;;3.25;3.00;;;;;;;;5064279;27;45511;-68
2023/08/28 11:01:56;;;;;;;;;7.50;4.50;;;;;;;;5069742;27;45509;-70
2023/08/28 11:04:22;;;;;;;;;3.25;3.25;;;;;;;;5073164;27;45393;-70
2023/08/28 11:06:48;;;;;;;;;3.25;3.00;;;;;;;;5059115;27;47222;-70
2023/08/28 11:09:25;;;;;;;;;2.00;2.00;;;;;;;;5069672;27;46068;-70
2023/08/28 11:11:51;;;;;;;;;3.00;2.75;;;;;;;;5070849;27;45939;-69
2023/08/28 11:14:16;;;;;;;;;2.00;2.00;;;;;;;;5064678;27;45923;-69
2023/08/28 11:16:41;;;;;;;;;5.50;3.00;;;;;;;;5040180;28;45819;-70
2023/08/28 11:19:07;;;;;;;;;2.00;2.00;;;;;;;;5058769;27;46013;-69
2023/08/28 11:21:44;;;;;;;;;5.25;5.25;;;;;;;;5063103;27;46639;-69
2023/08/28 11:24:25;;;;;;;;;6.00;4.50;;;;;;;;5068507;27;45757;-69
2023/08/28 11:26:51;;;;;;;;;2.75;2.00;;;;;;;;5063948;27;45872;-68
2023/08/28 11:29:26;;;;;;;;;3.25;3.25;;;;;;;;5081656;27;45634;-69
2023/08/28 11:31:51;;;;;;;;;2.00;1.00;;;;;;;;5078668;27;45482;-68
2023/08/28 11:34:16;;;;;;;;;1.25;1.25;;;;;;;;5057107;28;46768;-68
2023/08/28 11:36:42;;;;;;;;;3.00;2.00;;;;;;;;5071402;27;46484;-67
2023/08/28 11:39:19;;;;;;;;;1.25;1.25;;;;;;;;5077751;27;45357;-66
2023/08/28 11:41:44;;;;;;;;;2.00;2.00;;;;;;;;5068219;27;45727;-66
2023/08/28 11:44:12;;;;;;;;;5.00;3.25;;;;;;;;5067150;27;45656;-67
2023/08/28 11:46:37;;;;;;;;;3.00;2.75;;;;;;;;5070246;27;45491;-69
2023/08/28 11:49:06;;;;;;;;;1.25;1.25;;;;;;;;5073825;27;45492;-67
2023/08/28 11:51:31;;;;;;;;;2.00;2.00;;;;;;;;5072254;27;45885;-68
2023/08/28 11:53:56;;;;;;;;;3.00;2.00;;;;;;;;5063017;28;46921;-67
2023/08/28 11:56:21;;;;;;;;;2.50;1.00;;;;;;;;5065456;27;45413;-68
2023/08/28 11:58:47;;;;;;;;;2.75;1.50;;;;;;;;5070720;27;46507;-67
2023/08/28 12:01:13;;;;;;;;;1.50;1.25;;;;;;;;5070575;27;45859;-67
2023/08/28 12:03:39;;;;;;;;;6.00;2.00;;;;;;;;5066976;27;45768;-67
2023/08/28 12:06:06;;;;;;;;;3.00;2.00;;;;;;;;5050076;28;47838;-66
2023/08/28 12:08:32;;;;;;;;;2.75;1.00;;;;;;;;5070092;27;45541;-66
2023/08/28 12:10:58;;;;;;;;;1.00;1.00;;;;;;;;5044467;28;45171;-67
2023/08/28 12:13:23;;;;;;;;;1.50;1.50;;;;;;;;5066701;27;45267;-67
2023/08/28 12:15:49;;;;;;;;;2.00;1.00;;;;;;;;5066039;28;45431;-66
2023/08/28 12:18:14;;;;;;;;;2.25;1.00;;;;;;;;5047691;28;45792;-67
2023/08/28 12:20:39;;;;;;;;;1.00;1.00;;;;;;;;5057566;28;45524;-67
2023/08/28 12:23:04;;;;;;;;;2.00;2.00;;;;;;;;5063492;27;45533;-66
2023/08/28 12:25:31;;;;;;;;;1.00;1.00;;;;;;;;5054846;28;46402;-66
2023/08/28 12:28:22;;;;;;;;;2.00;2.00;;;;;;;;5063199;27;45790;-67
2023/08/28 12:30:51;;;;;;;;;1.75;1.75;;;;;;;;5066957;27;45739;-67
2023/08/28 12:33:16;;;;;;;;;1.00;1.00;;;;;;;;5063535;27;45770;-66
2023/08/28 12:35:41;;;;;;;;;4.00;1.25;;;;;;;;5067722;27;45487;-66
2023/08/28 12:38:10;;;;;;;;;2.00;1.00;;;;;;;;5076774;27;45665;-66
2023/08/28 12:40:35;;;;;;;;;1.25;1.25;;;;;;;;5063690;28;45359;-66
2023/08/28 12:43:03;;;;;;;;;1.25;1.25;;;;;;;;5071316;27;46015;-69
2023/08/28 12:45:29;;;;;;;;;1.00;1.00;;;;;;;;5044816;28;47196;-66
2023/08/28 12:47:54;;;;;;;;;2.75;1.25;;;;;;;;5065293;27;45722;-66
2023/08/28 12:50:20;;;;;;;;;0.50;0.50;;;;;;;;5087988;27;45458;-66
2023/08/28 12:52:45;;;;;;;;;2.75;2.00;;;;;;;;5044763;28;45706;-67
2023/08/28 12:55:11;;;;;;;;;1.00;1.00;;;;;;;;5062835;27;46231;-68
2023/08/28 12:57:36;;;;;;;;;0.00;0.00;;;;;;;;5070397;27;45352;-67
2023/08/28 13:00:01;;;;;;;;;2.00;2.00;;;;;;;;5076691;27;45357;-70
2023/08/28 13:02:27;;;;;;;;;1.00;1.00;;;;;;;;5059939;27;45532;-66
2023/08/28 13:04:52;;;;;;;;;3.25;1.00;;;;;;;;5069121;27;46238;-68
2023/08/28 13:07:17;;;;;;;;;1.00;1.00;;;;;;;;5061749;27;45449;-67
2023/08/28 13:09:43;;;;;;;;;3.00;1.00;;;;;;;;5064344;27;45998;-64
2023/08/28 13:12:09;;;;;;;;;2.00;2.00;;;;;;;;5047688;27;45756;-64
2023/08/28 13:14:35;;;;;;;;;1.00;1.00;;;;;;;;5049748;28;46646;-65
2023/08/28 13:17:00;;;;;;;;;3.50;1.00;;;;;;;;5053077;27;45658;-69
2023/08/28 13:19:26;;;;;;;;;3.25;1.25;;;;;;;;5069746;27;45882;-66
2023/08/28 13:21:52;;;;;;;;;1.00;1.00;;;;;;;;5070578;27;45386;-66
2023/08/28 13:24:18;;;;;;;;;1.00;0.00;;;;;;;;5067530;27;46482;-66
2023/08/28 13:26:43;;;;;;;;;2.00;2.00;;;;;;;;5068695;27;45457;-65
2023/08/28 13:29:09;;;;;;;;;1.00;1.00;;;;;;;;5054017;28;45324;-65
2023/08/28 13:31:35;;;;;;;;;1.75;1.50;;;;;;;;5067512;27;45715;-66
2023/08/28 13:34:00;;;;;;;;;2.00;1.00;;;;;;;;5073114;27;46486;-66
2023/08/28 13:36:26;;;;;;;;;1.75;1.75;;;;;;;;5079519;27;45629;-65
2023/08/28 13:38:51;;;;;;;;;2.00;1.00;;;;;;;;5068032;27;45649;-67
2023/08/28 13:41:18;;;;;;;;;1.50;1.50;;;;;;;;5072153;27;45637;-65
2023/08/28 13:43:43;;;;;;;;;1.50;1.50;;;;;;;;5060745;28;45583;-65
2023/08/28 13:46:08;;;;;;;;;1.00;1.00;;;;;;;;5063360;27;45639;-65
2023/08/28 13:48:34;;;;;;;;;2.00;2.00;;;;;;;;5055130;27;45485;-66
2023/08/28 13:50:59;;;;;;;;;1.50;1.00;;;;;;;;5049925;28;45530;-66
2023/08/28 13:53:25;;;;;;;;;2.00;1.25;;;;;;;;5063247;27;45680;-65
2023/08/28 13:55:54;;;;;;;;;1.00;1.00;;;;;;;;5048869;28;45917;-66
2023/08/28 13:58:22;;;;;;;;;3.00;1.00;;;;;;;;5077950;27;45970;-65
2023/08/28 14:00:47;;;;;;;;;2.25;2.00;;;;;;;;5061470;27;45699;-65
2023/08/28 14:03:12;;;;;;;;;2.00;2.00;;;;;;;;5047589;27;48361;-67
2023/08/28 14:05:38;;;;;;;;;1.00;1.00;;;;;;;;5069995;27;45739;-64
2023/08/28 14:08:03;;;;;;;;;1.00;1.00;;;;;;;;5062610;27;45480;-67
2023/08/28 14:10:28;;;;;;;;;1.00;1.00;;;;;;;;5062946;27;45507;-68
2023/08/28 14:12:54;;;;;;;;;1.00;1.00;;;;;;;;5037602;28;45731;-66
2023/08/28 14:15:20;;;;;;;;;1.50;0.75;;;;;;;;5044260;28;45389;-65
2023/08/28 14:17:45;;;;;;;;;1.75;1.75;;;;;;;;5063148;27;46770;-65
2023/08/28 14:20:10;;;;;;;;;1.00;1.00;;;;;;;;5047415;28;46353;-66
2023/08/28 14:22:36;;;;;;;;;2.00;2.00;;;;;;;;5060811;27;45725;-66
2023/08/28 14:25:01;;;;;;;;;3.75;2.00;;;;;;;;5057104;27;45796;-66
2023/08/28 14:27:27;;;;;;;;;1.00;1.00;;;;;;;;5042417;28;46452;-65
2023/08/28 14:29:52;;;;;;;;;2.00;2.00;;;;;;;;5055252;27;46614;-65
2023/08/28 14:32:17;;;;;;;;;5.75;5.75;;;;;;;;5062190;27;46712;-65
2023/08/28 14:34:43;;;;;;;;;5.00;3.50;;;;;;;;5044947;28;45812;-67
2023/08/28 14:37:08;;;;;;;;;5.00;2.00;;;;;;;;5056950;27;45463;-66